createdAt,value
2018-03-14T00:00:16.713Z,93.60
2018-03-14T00:02:45.080Z,93.80
2018-03-14T00:05:12.650Z,93.80
2018-03-14T00:07:40.293Z,93.80
2018-03-14T00:10:07.866Z,94.20
2018-03-14T00:12:35.444Z,93.90
2018-03-14T00:15:03.093Z,93.80
2018-03-14T00:17:30.685Z,93.90
2018-03-14T00:19:59.022Z,94.00
2018-03-14T00:22:33.332Z,94.00
2018-03-14T00:25:00.915Z,94.00
2018-03-14T00:27:28.491Z,94.00
2018-03-14T00:29:56.860Z,94.50
2018-03-14T00:32:24.528Z,94.20
2018-03-14T00:34:52.178Z,94.60
2018-03-14T00:37:19.855Z,93.90
2018-03-14T00:39:47.508Z,94.20
2018-03-14T00:42:15.893Z,94.20
2018-03-14T00:44:43.564Z,94.20
2018-03-14T00:47:11.219Z,94.10
2018-03-14T00:49:38.814Z,94.40
2018-03-14T00:52:06.424Z,94.10
2018-03-14T00:54:33.987Z,94.10
2018-03-14T00:57:01.564Z,94.20
2018-03-14T00:59:29.156Z,94.30
2018-03-14T01:01:57.601Z,94.20
2018-03-14T01:04:25.169Z,94.20
2018-03-14T01:06:52.758Z,94.40
2018-03-14T01:09:21.202Z,94.40
2018-03-14T01:11:48.874Z,94.40
2018-03-14T01:14:16.448Z,94.30
2018-03-14T01:16:44.096Z,94.20
2018-03-14T01:19:11.667Z,94.30
2018-03-14T01:21:39.251Z,94.20
2018-03-14T01:24:07.577Z,94.10
2018-03-14T01:26:35.155Z,94.50
2018-03-14T01:29:02.819Z,94.20
2018-03-14T01:31:30.480Z,94.40
2018-03-14T01:33:58.051Z,94.50
2018-03-14T01:36:25.713Z,94.50
2018-03-14T01:38:53.287Z,94.50
2018-03-14T01:41:21.625Z,94.60
2018-03-14T01:43:49.323Z,94.30
2018-03-14T01:46:16.919Z,94.40
2018-03-14T01:48:44.487Z,94.20
2018-03-14T01:51:12.073Z,93.90
2018-03-14T01:53:39.641Z,93.80
2018-03-14T01:56:07.387Z,93.90
2018-03-14T01:58:36.519Z,94.20
2018-03-14T02:01:04.096Z,93.90
2018-03-14T02:03:31.752Z,94.00
2018-03-14T02:05:59.340Z,94.00
2018-03-14T02:08:27.770Z,94.00
2018-03-14T02:10:55.350Z,94.00
2018-03-14T02:13:22.941Z,94.00
2018-03-14T02:15:51.292Z,94.00
2018-03-14T02:18:18.858Z,94.00
2018-03-14T02:20:47.223Z,94.00
2018-03-14T02:23:14.898Z,94.00
2018-03-14T02:25:42.470Z,94.10
2018-03-14T02:28:10.830Z,93.90
2018-03-14T02:30:38.503Z,93.90
2018-03-14T02:33:06.065Z,94.10
2018-03-14T02:35:33.730Z,94.00
2018-03-14T02:38:01.311Z,94.10
2018-03-14T02:40:29.642Z,94.50
2018-03-14T02:42:57.228Z,94.50
2018-03-14T02:45:24.802Z,94.50
2018-03-14T02:47:52.446Z,94.70
2018-03-14T02:50:20.012Z,94.70
2018-03-14T02:52:47.579Z,94.40
2018-03-14T02:55:15.236Z,94.30
2018-03-14T02:57:42.805Z,94.30
2018-03-14T03:00:10.353Z,94.40
2018-03-14T03:02:37.917Z,94.30
2018-03-14T03:05:05.486Z,94.20
2018-03-14T03:07:33.046Z,94.00
2018-03-14T03:10:00.713Z,94.30
2018-03-14T03:12:28.370Z,94.60
2018-03-14T03:14:55.926Z,94.70
2018-03-14T03:17:23.492Z,94.90
2018-03-14T03:19:51.053Z,94.80
2018-03-14T03:22:18.712Z,94.80
2018-03-14T03:24:46.265Z,94.80
2018-03-14T03:27:13.828Z,94.90
2018-03-14T03:29:41.375Z,95.00
2018-03-14T03:32:08.919Z,95.20
2018-03-14T03:34:36.510Z,95.30
2018-03-14T03:37:04.070Z,95.40
2018-03-14T03:39:31.643Z,95.50
2018-03-14T03:41:59.318Z,95.40
2018-03-14T03:44:27.664Z,95.30
2018-03-14T03:46:55.193Z,95.70
2018-03-14T03:49:23.616Z,95.30
2018-03-14T03:51:51.167Z,95.30
2018-03-14T03:54:18.710Z,95.20
2018-03-14T03:56:46.309Z,95.20
2018-03-14T03:59:13.859Z,95.10
2018-03-14T04:01:41.419Z,95.10
2018-03-14T04:04:08.977Z,95.10
2018-03-14T04:06:36.526Z,95.20
2018-03-14T04:09:04.102Z,95.10
2018-03-14T04:11:31.686Z,94.90
2018-03-14T04:13:59.328Z,94.80
2018-03-14T04:16:26.889Z,94.80
2018-03-14T04:18:54.474Z,94.80
2018-03-14T04:21:22.021Z,94.80
2018-03-14T04:23:49.567Z,94.80
2018-03-14T04:26:17.147Z,94.80
2018-03-14T04:28:44.805Z,94.80
2018-03-14T04:31:12.368Z,94.60
2018-03-14T04:33:40.004Z,94.50
2018-03-14T04:36:07.554Z,94.90
2018-03-14T04:38:35.107Z,94.40
2018-03-14T04:41:02.704Z,94.50
2018-03-14T04:43:30.253Z,94.50
2018-03-14T04:45:57.798Z,94.50
2018-03-14T04:48:25.353Z,94.50
2018-03-14T04:50:52.916Z,94.50
2018-03-14T04:53:20.473Z,94.50
2018-03-14T04:55:48.047Z,94.50
2018-03-14T04:58:15.592Z,94.40
2018-03-14T05:00:43.133Z,94.60
2018-03-14T05:03:11.461Z,94.30
2018-03-14T05:05:39.025Z,94.30
2018-03-14T05:08:06.585Z,94.30
2018-03-14T05:10:34.159Z,94.30
2018-03-14T05:13:01.721Z,94.30
2018-03-14T05:15:29.372Z,94.30
2018-03-14T05:17:56.936Z,94.30
2018-03-14T05:20:24.495Z,94.40
2018-03-14T05:22:52.058Z,94.40
2018-03-14T05:25:19.717Z,94.40
2018-03-14T05:27:47.263Z,94.30
2018-03-14T05:30:14.856Z,94.40
2018-03-14T05:32:42.506Z,94.40
2018-03-14T05:35:10.056Z,94.40
2018-03-14T05:37:37.606Z,94.30
2018-03-14T05:40:05.193Z,94.40
2018-03-14T05:42:32.739Z,94.50
2018-03-14T05:45:00.296Z,94.40
2018-03-14T05:47:27.983Z,94.40
2018-03-14T05:49:55.616Z,94.40
2018-03-14T05:52:23.192Z,94.50
2018-03-14T05:54:50.767Z,94.60
2018-03-14T05:57:18.327Z,94.60
2018-03-14T05:59:45.893Z,94.60
2018-03-14T06:02:13.543Z,94.60
2018-03-14T06:04:41.083Z,94.70
2018-03-14T06:07:08.627Z,94.70
2018-03-14T06:09:36.217Z,94.80
2018-03-14T06:12:05.218Z,94.80
2018-03-14T06:14:32.784Z,94.80
2018-03-14T06:17:00.555Z,94.90
2018-03-14T06:19:28.236Z,94.90
2018-03-14T06:21:55.871Z,95.10
2018-03-14T06:24:23.465Z,95.30
2018-03-14T06:26:51.104Z,95.30
2018-03-14T06:29:18.668Z,95.70
2018-03-14T06:31:46.367Z,95.40
2018-03-14T06:34:14.678Z,95.50
2018-03-14T06:36:42.245Z,95.50
2018-03-14T06:39:09.836Z,95.50
2018-03-14T06:41:37.380Z,96.00
2018-03-14T06:44:04.944Z,95.80
2018-03-14T06:46:32.520Z,95.90
2018-03-14T06:49:00.078Z,96.00
2018-03-14T06:51:27.735Z,96.10
2018-03-14T06:53:55.472Z,96.10
2018-03-14T06:56:23.498Z,96.10
2018-03-14T06:59:03.088Z,96.00
2018-03-14T07:01:42.533Z,95.90
2018-03-14T07:04:22.191Z,95.90
2018-03-14T07:06:49.743Z,95.70
2018-03-14T07:09:17.301Z,95.70
2018-03-14T07:11:44.890Z,95.70
2018-03-14T07:14:12.458Z,95.70
2018-03-14T07:16:40.013Z,95.60
2018-03-14T07:19:07.591Z,95.60
2018-03-14T07:21:35.170Z,95.40
2018-03-14T07:24:03.487Z,95.10
2018-03-14T07:26:31.183Z,95.10
2018-03-14T07:28:58.747Z,95.10
2018-03-14T07:31:26.469Z,95.10
2018-03-14T07:33:54.044Z,95.10
2018-03-14T07:36:21.633Z,95.10
2018-03-14T07:38:49.178Z,95.30
2018-03-14T07:41:16.845Z,95.30
2018-03-14T07:43:44.506Z,95.30
2018-03-14T07:46:12.169Z,95.40
2018-03-14T07:48:39.739Z,95.40
2018-03-14T07:51:07.294Z,95.40
2018-03-14T07:53:34.944Z,95.50
2018-03-14T07:56:02.513Z,95.60
2018-03-14T07:58:30.173Z,95.70
2018-03-14T08:00:57.815Z,95.80
2018-03-14T08:03:25.501Z,95.80
2018-03-14T08:05:53.050Z,95.80
2018-03-14T08:08:20.619Z,95.80
2018-03-14T08:10:48.285Z,95.90
2018-03-14T08:13:15.955Z,95.90
2018-03-14T08:15:43.508Z,95.80
2018-03-14T08:18:11.071Z,95.70
2018-03-14T08:20:38.611Z,95.60
2018-03-14T08:23:06.170Z,95.30
2018-03-14T08:25:33.748Z,95.30
2018-03-14T08:28:01.295Z,95.00
2018-03-14T08:30:28.842Z,94.50
2018-03-14T08:32:56.435Z,94.60
2018-03-14T08:35:23.983Z,94.70
2018-03-14T08:37:51.579Z,94.70
2018-03-14T08:40:19.934Z,94.10
2018-03-14T08:42:47.612Z,94.10
2018-03-14T08:45:15.165Z,94.10
2018-03-14T08:47:42.815Z,94.00
2018-03-14T08:50:10.383Z,94.00
2018-03-14T08:52:37.927Z,93.90
2018-03-14T08:55:05.494Z,93.70
2018-03-14T08:57:33.067Z,93.50
2018-03-14T09:00:00.625Z,93.30
2018-03-14T09:02:28.180Z,93.40
2018-03-14T09:04:55.713Z,93.30
2018-03-14T09:07:23.316Z,93.30
2018-03-14T09:09:50.968Z,92.90
2018-03-14T09:12:18.543Z,92.80
2018-03-14T09:14:46.207Z,92.30
2018-03-14T09:17:20.609Z,92.00
2018-03-14T09:19:48.160Z,92.30
2018-03-14T09:22:15.738Z,91.70
2018-03-14T09:24:43.328Z,91.10
2018-03-14T09:27:10.961Z,91.30
2018-03-14T09:29:38.635Z,91.00
2018-03-14T09:32:06.197Z,90.10
2018-03-14T09:34:33.845Z,90.10
2018-03-14T09:37:01.453Z,87.90
2018-03-14T09:39:29.894Z,88.10
2018-03-14T09:41:57.569Z,88.10
2018-03-14T09:44:25.116Z,88.80
2018-03-14T09:46:52.767Z,86.90
2018-03-14T09:49:20.345Z,86.10
2018-03-14T09:51:47.999Z,87.10
2018-03-14T09:54:15.582Z,86.20
2018-03-14T09:56:43.126Z,85.50
2018-03-14T09:59:10.669Z,84.90
2018-03-14T10:01:38.246Z,82.30
2018-03-14T10:04:05.800Z,81.00
2018-03-14T10:06:33.352Z,79.90
2018-03-14T10:09:00.928Z,78.60
2018-03-14T10:11:28.512Z,76.00
2018-03-14T10:13:56.147Z,76.10
2018-03-14T10:16:23.718Z,76.90
2018-03-14T10:18:51.276Z,75.50
2018-03-14T10:21:18.827Z,74.50
2018-03-14T10:23:46.404Z,73.70
2018-03-14T10:26:13.958Z,72.40
2018-03-14T10:28:41.518Z,72.90
2018-03-14T10:31:09.193Z,72.30
2018-03-14T10:33:36.860Z,74.00
2018-03-14T10:36:04.416Z,72.40
2018-03-14T10:38:32.067Z,70.20
2018-03-14T10:40:59.635Z,70.90
2018-03-14T10:43:27.193Z,70.90
2018-03-14T10:45:54.842Z,68.70
2018-03-14T10:48:22.401Z,66.80
2018-03-14T10:50:49.959Z,67.90
2018-03-14T10:53:17.540Z,65.60
2018-03-14T10:55:45.097Z,65.80
2018-03-14T10:58:12.693Z,67.00
2018-03-14T11:00:46.782Z,67.40
2018-03-14T11:03:18.062Z,66.40
2018-03-14T11:05:45.622Z,66.40
2018-03-14T11:08:13.963Z,66.50
2018-03-14T11:10:41.528Z,67.30
2018-03-14T11:13:09.083Z,67.10
2018-03-14T11:15:36.755Z,64.50
2018-03-14T11:18:05.091Z,65.60
2018-03-14T11:20:32.665Z,65.60
2018-03-14T11:23:00.218Z,63.20
2018-03-14T11:25:27.770Z,63.30
2018-03-14T11:27:55.355Z,61.70
2018-03-14T11:30:22.931Z,62.20
2018-03-14T11:32:50.499Z,63.00
2018-03-14T11:35:18.062Z,61.10
2018-03-14T11:37:45.634Z,63.10
2018-03-14T11:40:13.943Z,60.00
2018-03-14T11:42:41.608Z,59.90
2018-03-14T11:45:09.175Z,59.20
2018-03-14T11:47:36.739Z,60.10
2018-03-14T11:50:04.296Z,60.90
2018-03-14T11:52:31.977Z,60.80
2018-03-14T11:54:59.530Z,61.60
2018-03-14T11:57:27.115Z,59.90
2018-03-14T11:59:54.720Z,60.10
2018-03-14T12:02:22.275Z,59.90
2018-03-14T12:04:50.603Z,60.40
2018-03-14T12:07:18.193Z,60.50
2018-03-14T12:09:46.530Z,61.50
2018-03-14T12:12:14.087Z,61.50
2018-03-14T12:14:41.744Z,60.20
2018-03-14T12:17:09.298Z,59.70
2018-03-14T12:19:36.880Z,61.60
2018-03-14T12:22:04.440Z,62.00
2018-03-14T12:24:32.014Z,60.90
2018-03-14T12:26:59.581Z,59.50
2018-03-14T12:29:28.851Z,59.10
2018-03-14T12:31:56.409Z,59.10
2018-03-14T12:34:23.994Z,59.70
2018-03-14T12:36:51.623Z,59.80
2018-03-14T12:39:19.181Z,59.10
2018-03-14T12:41:46.737Z,58.20
2018-03-14T12:44:14.335Z,58.00
2018-03-14T12:46:41.891Z,59.00
2018-03-14T12:49:09.448Z,58.40
2018-03-14T12:51:37.023Z,56.80
2018-03-14T12:54:04.621Z,56.40
2018-03-14T12:56:32.605Z,56.40
2018-03-14T12:59:00.198Z,55.00
2018-03-14T13:01:27.762Z,55.80
2018-03-14T13:03:55.307Z,54.60
2018-03-14T13:06:22.887Z,55.00
2018-03-14T13:08:50.422Z,55.90
2018-03-14T13:11:17.997Z,56.10
2018-03-14T13:13:45.561Z,56.00
2018-03-14T13:16:13.105Z,57.30
2018-03-14T13:18:40.689Z,56.10
2018-03-14T13:21:08.343Z,54.70
2018-03-14T13:23:35.879Z,56.00
2018-03-14T13:26:03.421Z,53.80
2018-03-14T13:28:32.029Z,54.30
2018-03-14T13:30:59.575Z,54.20
2018-03-14T13:33:27.126Z,53.90
2018-03-14T13:35:54.701Z,54.20
2018-03-14T13:38:22.273Z,54.60
2018-03-14T13:40:49.849Z,54.90
2018-03-14T13:43:17.480Z,53.90
2018-03-14T13:45:45.047Z,55.20
2018-03-14T13:48:12.614Z,53.20
2018-03-14T13:50:40.174Z,53.40
2018-03-14T13:53:07.768Z,53.50
2018-03-14T13:55:35.323Z,53.30
2018-03-14T13:58:02.980Z,52.90
2018-03-14T14:00:30.536Z,53.90
2018-03-14T14:02:58.094Z,53.40
2018-03-14T14:05:25.654Z,53.80
2018-03-14T14:07:53.210Z,53.70
2018-03-14T14:10:20.861Z,52.30
2018-03-14T14:12:48.410Z,52.50
2018-03-14T14:15:15.988Z,53.10
2018-03-14T14:17:43.530Z,52.50
2018-03-14T14:20:11.093Z,53.30
2018-03-14T14:22:38.654Z,52.70
2018-03-14T14:25:06.230Z,52.90
2018-03-14T14:27:33.803Z,53.60
2018-03-14T14:30:01.344Z,51.70
2018-03-14T14:32:28.882Z,52.00
2018-03-14T14:34:56.448Z,52.60
2018-03-14T14:37:24.001Z,53.10
2018-03-14T14:39:51.562Z,53.40
2018-03-14T14:42:19.199Z,54.00
2018-03-14T14:44:47.552Z,53.20
2018-03-14T14:47:15.207Z,53.10
2018-03-14T14:49:42.883Z,52.10
2018-03-14T14:52:10.526Z,53.00
2018-03-14T14:54:38.073Z,52.90
2018-03-14T14:57:05.773Z,53.10
2018-03-14T14:59:33.333Z,53.20
2018-03-14T15:02:00.876Z,52.90
2018-03-14T15:04:28.444Z,52.30
2018-03-14T15:06:55.995Z,52.90
2018-03-14T15:09:23.539Z,53.20
2018-03-14T15:11:51.218Z,53.30
2018-03-14T15:14:18.763Z,53.10
2018-03-14T15:16:46.336Z,52.10
2018-03-14T15:19:13.914Z,53.10
2018-03-14T15:21:41.467Z,54.00
2018-03-14T15:24:09.022Z,53.20
2018-03-14T15:26:36.731Z,53.50
2018-03-14T15:29:05.082Z,53.30
2018-03-14T15:31:36.081Z,53.20
2018-03-14T15:34:03.660Z,53.60
2018-03-14T15:36:31.253Z,53.80
2018-03-14T15:38:58.814Z,53.20
2018-03-14T15:41:27.183Z,53.60
2018-03-14T15:43:54.735Z,53.50
2018-03-14T15:46:22.406Z,53.40
2018-03-14T15:48:49.971Z,54.20
2018-03-14T15:51:17.612Z,53.70
2018-03-14T15:53:45.172Z,53.30
2018-03-14T15:56:12.736Z,53.70
2018-03-14T15:58:40.286Z,53.90
2018-03-14T16:01:07.848Z,54.60
2018-03-14T16:03:35.409Z,53.90
2018-03-14T16:06:02.960Z,54.10
2018-03-14T16:08:30.533Z,54.50
2018-03-14T16:10:58.196Z,54.80
2018-03-14T16:13:25.746Z,54.70
2018-03-14T16:15:53.314Z,54.40
2018-03-14T16:18:20.866Z,54.20
2018-03-14T16:20:48.434Z,53.80
2018-03-14T16:23:16.005Z,54.00
2018-03-14T16:25:43.662Z,54.40
2018-03-14T16:28:11.246Z,54.40
2018-03-14T16:30:38.801Z,53.50
2018-03-14T16:33:06.362Z,54.00
2018-03-14T16:35:34.019Z,53.90
2018-03-14T16:38:02.436Z,53.70
2018-03-14T16:40:30.946Z,55.30
2018-03-14T16:42:58.917Z,54.70
2018-03-14T16:45:26.537Z,54.40
2018-03-14T16:47:54.959Z,54.20
2018-03-14T16:50:23.431Z,54.80
2018-03-14T16:52:51.000Z,54.20
2018-03-14T16:55:18.558Z,54.90
2018-03-14T16:57:46.251Z,55.10
2018-03-14T17:00:14.168Z,55.00
2018-03-14T17:02:41.722Z,55.60
2018-03-14T17:05:10.081Z,55.90
2018-03-14T17:07:37.656Z,55.90
2018-03-14T17:10:05.970Z,56.20
2018-03-14T17:12:33.521Z,56.00
2018-03-14T17:15:01.118Z,55.90
2018-03-14T17:17:28.770Z,56.20
2018-03-14T17:19:56.340Z,56.60
2018-03-14T17:22:23.983Z,56.80
2018-03-14T17:24:51.528Z,56.90
2018-03-14T17:27:19.108Z,57.40
2018-03-14T17:29:46.798Z,57.50
2018-03-14T17:32:14.826Z,57.30
2018-03-14T17:34:42.485Z,57.60
2018-03-14T17:37:10.111Z,57.50
2018-03-14T17:39:38.433Z,58.20
2018-03-14T17:42:06.003Z,58.20
2018-03-14T17:44:33.578Z,58.20
2018-03-14T17:47:01.119Z,58.20
2018-03-14T17:49:28.674Z,58.30
2018-03-14T17:51:56.267Z,58.30
2018-03-14T17:54:23.891Z,58.10
2018-03-14T17:56:51.465Z,58.00
2018-03-14T17:59:19.037Z,58.30
2018-03-14T18:01:46.588Z,58.30
2018-03-14T18:04:14.147Z,58.30
2018-03-14T18:06:41.831Z,58.60
2018-03-14T18:09:09.561Z,58.90
2018-03-14T18:11:37.334Z,59.10
2018-03-14T18:14:05.029Z,59.40
2018-03-14T18:16:32.615Z,59.40
2018-03-14T18:19:01.032Z,60.40
2018-03-14T18:21:28.621Z,60.30
2018-03-14T18:23:56.201Z,60.70
2018-03-14T18:26:23.848Z,61.20
2018-03-14T18:28:51.418Z,61.40
2018-03-14T18:31:18.994Z,61.70
2018-03-14T18:33:47.330Z,62.60
2018-03-14T18:36:14.909Z,62.50
2018-03-14T18:38:42.467Z,63.00
2018-03-14T18:41:10.018Z,63.40
2018-03-14T18:43:37.607Z,63.40
2018-03-14T18:46:05.252Z,64.90
2018-03-14T18:48:32.806Z,65.80
2018-03-14T18:51:00.372Z,64.90
2018-03-14T18:53:27.926Z,64.20
2018-03-14T18:55:55.607Z,64.60
2018-03-14T18:58:23.174Z,65.00
2018-03-14T19:00:50.734Z,64.60
2018-03-14T19:03:19.084Z,64.70
2018-03-14T19:05:46.632Z,64.70
2018-03-14T19:08:14.299Z,64.20
2018-03-14T19:10:41.851Z,64.10
2018-03-14T19:13:09.408Z,64.40
2018-03-14T19:15:36.959Z,63.80
2018-03-14T19:18:04.550Z,63.90
2018-03-14T19:20:32.211Z,63.50
2018-03-14T19:22:59.751Z,63.50
2018-03-14T19:25:27.289Z,63.50
2018-03-14T19:27:54.850Z,63.40
2018-03-14T19:30:22.441Z,63.40
2018-03-14T19:32:49.999Z,63.40
2018-03-14T19:35:17.550Z,63.90
2018-03-14T19:37:45.138Z,64.00
2018-03-14T19:40:12.687Z,64.40
2018-03-14T19:42:40.239Z,65.20
2018-03-14T19:45:07.771Z,65.10
2018-03-14T19:47:35.335Z,65.40
2018-03-14T19:50:02.908Z,65.90
2018-03-14T19:52:30.449Z,66.10
2018-03-14T19:54:57.990Z,66.60
2018-03-14T19:57:26.317Z,67.80
2018-03-14T19:59:53.868Z,67.70
2018-03-14T20:02:21.420Z,68.40
2018-03-14T20:04:48.991Z,68.80
2018-03-14T20:07:16.542Z,69.40
2018-03-14T20:09:44.134Z,70.00
2018-03-14T20:12:11.700Z,70.70
2018-03-14T20:14:39.259Z,71.30
2018-03-14T20:17:06.829Z,71.70
2018-03-14T20:19:34.455Z,72.30
2018-03-14T20:22:01.994Z,72.60
2018-03-14T20:24:29.553Z,72.80
2018-03-14T20:26:57.113Z,73.20
2018-03-14T20:29:24.659Z,73.70
2018-03-14T20:31:52.973Z,74.40
2018-03-14T20:34:20.539Z,74.30
2018-03-14T20:36:48.095Z,74.00
2018-03-14T20:39:15.633Z,74.40
2018-03-14T20:41:43.243Z,74.20
2018-03-14T20:44:10.889Z,74.30
2018-03-14T20:46:38.436Z,74.30
2018-03-14T20:49:06.007Z,74.20
2018-03-14T20:51:33.560Z,74.20
2018-03-14T20:54:01.131Z,74.20
2018-03-14T20:56:28.698Z,74.30
2018-03-14T20:58:56.262Z,74.20
2018-03-14T21:01:23.816Z,74.30
2018-03-14T21:03:51.378Z,74.30
2018-03-14T21:06:18.955Z,74.40
2018-03-14T21:08:46.513Z,74.70
2018-03-14T21:11:14.093Z,74.70
2018-03-14T21:13:42.398Z,74.70
2018-03-14T21:16:09.941Z,74.60
2018-03-14T21:18:38.372Z,75.00
2018-03-14T21:21:05.934Z,75.00
2018-03-14T21:23:35.176Z,75.10
2018-03-14T21:26:03.710Z,75.30
2018-03-14T21:28:31.244Z,75.30
2018-03-14T21:30:58.832Z,75.30
2018-03-14T21:33:26.494Z,75.30
2018-03-14T21:35:54.142Z,75.10
2018-03-14T21:38:21.719Z,75.00
2018-03-14T21:40:49.389Z,75.10
2018-03-14T21:43:16.947Z,75.10
2018-03-14T21:45:44.503Z,75.20
2018-03-14T21:48:12.056Z,74.90
2018-03-14T21:50:39.605Z,75.00
2018-03-14T21:53:07.228Z,75.10
2018-03-14T21:55:39.448Z,75.30
2018-03-14T21:58:06.996Z,75.20
2018-03-14T22:00:34.542Z,76.00
2018-03-14T22:03:02.126Z,75.20
2018-03-14T22:05:29.703Z,75.10
2018-03-14T22:07:57.255Z,75.00
2018-03-14T22:10:24.811Z,75.40
2018-03-14T22:12:52.350Z,75.40
2018-03-14T22:15:19.892Z,75.30
2018-03-14T22:17:47.513Z,75.70
2018-03-14T22:20:15.058Z,75.40
2018-03-14T22:22:42.632Z,75.40
2018-03-14T22:25:10.194Z,75.20
2018-03-14T22:27:37.748Z,75.30
2018-03-14T22:30:05.313Z,75.40
2018-03-14T22:32:32.860Z,75.60
2018-03-14T22:35:00.433Z,75.50
2018-03-14T22:37:28.105Z,75.60
2018-03-14T22:39:55.651Z,75.40
2018-03-14T22:42:23.204Z,75.50
2018-03-14T22:44:50.748Z,75.60
2018-03-14T22:47:18.310Z,75.80
2018-03-14T22:49:45.887Z,75.80
2018-03-14T22:52:13.441Z,75.80
2018-03-14T22:54:41.026Z,76.00
2018-03-14T22:57:08.564Z,76.10
2018-03-14T22:59:36.128Z,76.20
2018-03-14T23:02:03.699Z,76.10
2018-03-14T23:04:31.241Z,76.20
2018-03-14T23:06:58.783Z,76.20
2018-03-14T23:09:26.397Z,76.50
2018-03-14T23:11:53.945Z,76.60
2018-03-14T23:14:21.511Z,76.80
2018-03-14T23:16:49.189Z,76.50
2018-03-14T23:19:16.723Z,77.00
2018-03-14T23:21:44.291Z,77.00
2018-03-14T23:24:11.866Z,77.30
2018-03-14T23:26:39.461Z,77.30
2018-03-14T23:29:07.766Z,77.20
2018-03-14T23:31:35.330Z,77.20
2018-03-14T23:34:02.909Z,77.50
2018-03-14T23:36:30.451Z,77.60
2018-03-14T23:38:58.026Z,77.60
2018-03-14T23:41:25.602Z,77.90
2018-03-14T23:43:53.253Z,77.80
2018-03-14T23:46:20.933Z,77.90
2018-03-14T23:48:48.614Z,78.10
2018-03-14T23:51:16.245Z,78.20
2018-03-14T23:53:43.822Z,78.40
2018-03-14T23:56:12.144Z,78.80
2018-03-14T23:58:39.704Z,78.70
